Campo Largo, Argentina
Current Conditions -  °F | °C
As of 3:00 PM on Thursday 23 Oct 2014 (Local Time) from SARC Reporting Station
Broken Clouds Broken Clouds  
Wind Chill: 91°   Ceiling: 20000
Heat Index: 91°   Visibility: 5mi
Dew Point: 57°   Wind: 12mph
Humidity: 31%   Direction: 340°NNW
Pressure: 29.88"   Gusts: NA
Location:  26.8°S, 60.83°W
Report Text: SARC 231800Z 34010KT 8000 FEW025 BKN20033/14 Q1012
Loading
Personal Weather Stations






























Interactive Weather Map
Tropical Storm Tracking
New forecast layout! Learn more

10-Day Weather Forecast

Advertisements
Track Severe Weather on mobile